sensor_id;sensor_type;location;lat;lon;timestamp;temperature;humidity
76787;DHT22;65739;51.482;5.702;2023-08-30T00:00:09;12.80;99.90
76787;DHT22;65739;51.482;5.702;2023-08-30T00:02:35;12.70;99.90
76787;DHT22;65739;51.482;5.702;2023-08-30T00:05:02;12.60;99.90
76787;DHT22;65739;51.482;5.702;2023-08-30T00:07:28;12.60;99.90
76787;DHT22;65739;51.482;5.702;2023-08-30T00:09:54;12.60;99.90
76787;DHT22;65739;51.482;5.702;2023-08-30T00:12:20;12.50;99.90
76787;DHT22;65739;51.482;5.702;2023-08-30T00:14:45;12.40;99.90
76787;DHT22;65739;51.482;5.702;2023-08-30T00:17:11;12.40;99.90
76787;DHT22;65739;51.482;5.702;2023-08-30T00:19:36;12.30;99.90
76787;DHT22;65739;51.482;5.702;2023-08-30T00:22:02;12.20;99.90
76787;DHT22;65739;51.482;5.702;2023-08-30T00:24:28;12.20;99.90
76787;DHT22;65739;51.482;5.702;2023-08-30T00:26:54;12.10;99.90
76787;DHT22;65739;51.482;5.702;2023-08-30T00:29:19;12.00;99.90
76787;DHT22;65739;51.482;5.702;2023-08-30T00:31:44;12.00;99.90
76787;DHT22;65739;51.482;5.702;2023-08-30T00:34:10;12.00;99.90
76787;DHT22;65739;51.482;5.702;2023-08-30T00:36:36;11.90;99.90
76787;DHT22;65739;51.482;5.702;2023-08-30T00:39:02;11.90;99.90
76787;DHT22;65739;51.482;5.702;2023-08-30T00:41:29;11.80;99.90
76787;DHT22;65739;51.482;5.702;2023-08-30T00:43:54;11.80;99.90
76787;DHT22;65739;51.482;5.702;2023-08-30T00:46:20;11.80;99.90
76787;DHT22;65739;51.482;5.702;2023-08-30T00:48:45;11.70;99.90
76787;DHT22;65739;51.482;5.702;2023-08-30T00:51:11;11.70;99.90
76787;DHT22;65739;51.482;5.702;2023-08-30T00:53:37;11.70;99.90
76787;DHT22;65739;51.482;5.702;2023-08-30T00:56:03;11.70;99.90
76787;DHT22;65739;51.482;5.702;2023-08-30T00:58:29;11.80;99.90
76787;DHT22;65739;51.482;5.702;2023-08-30T01:00:54;11.80;99.90
76787;DHT22;65739;51.482;5.702;2023-08-30T01:03:20;11.80;99.90
76787;DHT22;65739;51.482;5.702;2023-08-30T01:05:47;11.90;99.90
76787;DHT22;65739;51.482;5.702;2023-08-30T01:08:12;11.90;99.90
76787;DHT22;65739;51.482;5.702;2023-08-30T01:10:51;12.00;99.90
76787;DHT22;65739;51.482;5.702;2023-08-30T01:13:19;12.10;99.90
76787;DHT22;65739;51.482;5.702;2023-08-30T01:15:47;12.10;99.90
76787;DHT22;65739;51.482;5.702;2023-08-30T01:18:16;12.10;99.90
76787;DHT22;65739;51.482;5.702;2023-08-30T01:20:43;12.10;99.90
76787;DHT22;65739;51.482;5.702;2023-08-30T01:26:29;12.10;99.90
76787;DHT22;65739;51.482;5.702;2023-08-30T01:28:56;12.00;99.90
76787;DHT22;65739;51.482;5.702;2023-08-30T01:31:26;12.00;99.90
76787;DHT22;65739;51.482;5.702;2023-08-30T01:33:52;11.90;99.90
76787;DHT22;65739;51.482;5.702;2023-08-30T01:36:19;11.90;99.90
76787;DHT22;65739;51.482;5.702;2023-08-30T01:38:44;11.90;99.90
76787;DHT22;65739;51.482;5.702;2023-08-30T01:41:12;11.80;99.90
76787;DHT22;65739;51.482;5.702;2023-08-30T01:43:37;11.70;99.90
76787;DHT22;65739;51.482;5.702;2023-08-30T01:46:04;11.70;99.90
76787;DHT22;65739;51.482;5.702;2023-08-30T01:48:31;11.60;99.90
76787;DHT22;65739;51.482;5.702;2023-08-30T01:50:57;11.50;99.90
76787;DHT22;65739;51.482;5.702;2023-08-30T01:53:26;11.50;99.90
76787;DHT22;65739;51.482;5.702;2023-08-30T01:55:53;11.40;99.90
76787;DHT22;65739;51.482;5.702;2023-08-30T01:58:18;11.40;99.90
76787;DHT22;65739;51.482;5.702;2023-08-30T02:00:44;11.30;99.90
76787;DHT22;65739;51.482;5.702;2023-08-30T02:03:13;11.30;99.90
76787;DHT22;65739;51.482;5.702;2023-08-30T02:06:05;11.20;99.90
76787;DHT22;65739;51.482;5.702;2023-08-30T02:08:41;11.20;99.90
76787;DHT22;65739;51.482;5.702;2023-08-30T02:11:19;11.10;99.90
76787;DHT22;65739;51.482;5.702;2023-08-30T02:13:46;11.10;99.90
76787;DHT22;65739;51.482;5.702;2023-08-30T02:16:13;11.10;99.90
76787;DHT22;65739;51.482;5.702;2023-08-30T02:18:40;11.10;99.90
76787;DHT22;65739;51.482;5.702;2023-08-30T02:21:06;11.00;99.90
76787;DHT22;65739;51.482;5.702;2023-08-30T02:23:31;11.00;99.90
76787;DHT22;65739;51.482;5.702;2023-08-30T02:25:57;11.00;99.90
76787;DHT22;65739;51.482;5.702;2023-08-30T02:28:23;11.00;99.90
76787;DHT22;65739;51.482;5.702;2023-08-30T02:30:49;11.00;99.90
76787;DHT22;65739;51.482;5.702;2023-08-30T02:33:15;10.90;99.90
76787;DHT22;65739;51.482;5.702;2023-08-30T02:35:40;10.90;99.90
76787;DHT22;65739;51.482;5.702;2023-08-30T02:38:06;10.90;99.90
76787;DHT22;65739;51.482;5.702;2023-08-30T02:40:32;10.90;99.90
76787;DHT22;65739;51.482;5.702;2023-08-30T02:42:58;10.80;99.90
76787;DHT22;65739;51.482;5.702;2023-08-30T02:45:23;10.90;99.90
76787;DHT22;65739;51.482;5.702;2023-08-30T02:47:49;10.90;99.90
76787;DHT22;65739;51.482;5.702;2023-08-30T02:50:15;10.90;99.90
76787;DHT22;65739;51.482;5.702;2023-08-30T02:52:40;11.00;99.90
76787;DHT22;65739;51.482;5.702;2023-08-30T02:55:06;11.10;99.90
76787;DHT22;65739;51.482;5.702;2023-08-30T02:57:32;11.20;99.90
76787;DHT22;65739;51.482;5.702;2023-08-30T02:59:57;11.40;99.90
76787;DHT22;65739;51.482;5.702;2023-08-30T03:02:23;11.50;99.90
76787;DHT22;65739;51.482;5.702;2023-08-30T03:04:48;11.60;99.90
76787;DHT22;65739;51.482;5.702;2023-08-30T03:07:14;11.60;99.90
76787;DHT22;65739;51.482;5.702;2023-08-30T03:09:39;11.60;99.90
76787;DHT22;65739;51.482;5.702;2023-08-30T03:12:06;11.70;99.90
76787;DHT22;65739;51.482;5.702;2023-08-30T03:14:31;11.80;99.90
76787;DHT22;65739;51.482;5.702;2023-08-30T03:16:57;11.90;99.90
76787;DHT22;65739;51.482;5.702;2023-08-30T03:19:23;11.90;99.90
76787;DHT22;65739;51.482;5.702;2023-08-30T03:21:48;11.90;99.90
76787;DHT22;65739;51.482;5.702;2023-08-30T03:24:14;12.00;99.90
76787;DHT22;65739;51.482;5.702;2023-08-30T03:26:42;12.00;99.90
76787;DHT22;65739;51.482;5.702;2023-08-30T03:29:08;12.10;99.90
76787;DHT22;65739;51.482;5.702;2023-08-30T03:31:34;12.10;99.90
76787;DHT22;65739;51.482;5.702;2023-08-30T03:33:59;12.10;99.90
76787;DHT22;65739;51.482;5.702;2023-08-30T03:36:25;12.10;99.90
76787;DHT22;65739;51.482;5.702;2023-08-30T03:38:50;12.20;99.90
76787;DHT22;65739;51.482;5.702;2023-08-30T03:41:17;12.20;99.90
76787;DHT22;65739;51.482;5.702;2023-08-30T03:43:43;12.20;99.90
76787;DHT22;65739;51.482;5.702;2023-08-30T03:46:09;12.30;99.90
76787;DHT22;65739;51.482;5.702;2023-08-30T03:48:37;12.30;99.90
76787;DHT22;65739;51.482;5.702;2023-08-30T03:51:02;12.30;99.90
76787;DHT22;65739;51.482;5.702;2023-08-30T03:53:28;12.30;99.90
76787;DHT22;65739;51.482;5.702;2023-08-30T03:55:55;12.40;99.90
76787;DHT22;65739;51.482;5.702;2023-08-30T03:58:20;12.40;99.90
76787;DHT22;65739;51.482;5.702;2023-08-30T04:00:46;12.30;99.90
76787;DHT22;65739;51.482;5.702;2023-08-30T04:03:13;12.40;99.90
76787;DHT22;65739;51.482;5.702;2023-08-30T04:05:39;12.40;99.90
76787;DHT22;65739;51.482;5.702;2023-08-30T04:08:06;12.40;99.90
76787;DHT22;65739;51.482;5.702;2023-08-30T04:10:39;12.50;99.90
76787;DHT22;65739;51.482;5.702;2023-08-30T04:13:05;12.50;99.90
76787;DHT22;65739;51.482;5.702;2023-08-30T04:15:38;12.50;99.90
76787;DHT22;65739;51.482;5.702;2023-08-30T04:18:05;12.50;99.90
76787;DHT22;65739;51.482;5.702;2023-08-30T04:20:31;12.50;99.90
76787;DHT22;65739;51.482;5.702;2023-08-30T04:22:57;12.50;99.90
76787;DHT22;65739;51.482;5.702;2023-08-30T04:25:24;12.50;99.90
76787;DHT22;65739;51.482;5.702;2023-08-30T04:27:49;12.60;99.90
76787;DHT22;65739;51.482;5.702;2023-08-30T04:30:16;12.50;99.90
76787;DHT22;65739;51.482;5.702;2023-08-30T04:32:41;12.50;99.90
76787;DHT22;65739;51.482;5.702;2023-08-30T04:35:07;12.40;99.90
76787;DHT22;65739;51.482;5.702;2023-08-30T04:37:33;12.40;99.90
76787;DHT22;65739;51.482;5.702;2023-08-30T04:39:58;12.30;99.90
76787;DHT22;65739;51.482;5.702;2023-08-30T04:42:24;12.20;99.90
76787;DHT22;65739;51.482;5.702;2023-08-30T04:44:50;12.20;99.90
76787;DHT22;65739;51.482;5.702;2023-08-30T04:47:16;12.20;99.90
76787;DHT22;65739;51.482;5.702;2023-08-30T04:49:42;12.20;99.90
76787;DHT22;65739;51.482;5.702;2023-08-30T04:52:08;12.10;99.90
76787;DHT22;65739;51.482;5.702;2023-08-30T04:54:33;12.00;99.90
76787;DHT22;65739;51.482;5.702;2023-08-30T04:56:59;11.90;99.90
76787;DHT22;65739;51.482;5.702;2023-08-30T04:59:24;11.80;99.90
76787;DHT22;65739;51.482;5.702;2023-08-30T05:01:50;11.90;99.90
76787;DHT22;65739;51.482;5.702;2023-08-30T05:04:17;11.90;99.90
76787;DHT22;65739;51.482;5.702;2023-08-30T05:06:43;12.00;99.90
76787;DHT22;65739;51.482;5.702;2023-08-30T05:09:09;12.00;99.90
76787;DHT22;65739;51.482;5.702;2023-08-30T05:11:34;12.10;99.90
76787;DHT22;65739;51.482;5.702;2023-08-30T05:14:00;12.10;99.90
76787;DHT22;65739;51.482;5.702;2023-08-30T05:16:25;12.20;99.90
76787;DHT22;65739;51.482;5.702;2023-08-30T05:18:51;12.30;99.90
76787;DHT22;65739;51.482;5.702;2023-08-30T05:21:16;12.40;99.90
76787;DHT22;65739;51.482;5.702;2023-08-30T05:23:42;12.50;99.90
76787;DHT22;65739;51.482;5.702;2023-08-30T05:26:09;12.70;99.90
76787;DHT22;65739;51.482;5.702;2023-08-30T05:28:35;12.80;99.90
76787;DHT22;65739;51.482;5.702;2023-08-30T05:31:00;12.80;99.90
76787;DHT22;65739;51.482;5.702;2023-08-30T05:33:25;12.90;99.90
76787;DHT22;65739;51.482;5.702;2023-08-30T05:35:51;13.00;99.90
76787;DHT22;65739;51.482;5.702;2023-08-30T05:38:17;13.10;99.90
76787;DHT22;65739;51.482;5.702;2023-08-30T05:40:42;13.10;99.90
76787;DHT22;65739;51.482;5.702;2023-08-30T05:43:10;13.20;99.90
76787;DHT22;65739;51.482;5.702;2023-08-30T05:45:36;13.30;99.90
76787;DHT22;65739;51.482;5.702;2023-08-30T05:48:02;13.40;99.90
76787;DHT22;65739;51.482;5.702;2023-08-30T05:50:28;13.50;99.90
76787;DHT22;65739;51.482;5.702;2023-08-30T05:52:54;13.50;99.90
76787;DHT22;65739;51.482;5.702;2023-08-30T05:55:19;13.70;99.90
76787;DHT22;65739;51.482;5.702;2023-08-30T05:57:45;13.60;99.90
76787;DHT22;65739;51.482;5.702;2023-08-30T06:00:11;13.70;99.90
76787;DHT22;65739;51.482;5.702;2023-08-30T06:02:38;13.70;99.90
76787;DHT22;65739;51.482;5.702;2023-08-30T06:05:04;13.70;99.90
76787;DHT22;65739;51.482;5.702;2023-08-30T06:07:30;13.80;99.90
76787;DHT22;65739;51.482;5.702;2023-08-30T06:09:55;13.80;99.90
76787;DHT22;65739;51.482;5.702;2023-08-30T06:12:21;13.90;99.90
76787;DHT22;65739;51.482;5.702;2023-08-30T06:14:46;13.90;99.90
76787;DHT22;65739;51.482;5.702;2023-08-30T06:17:18;14.00;99.90
76787;DHT22;65739;51.482;5.702;2023-08-30T06:19:45;14.10;99.90
76787;DHT22;65739;51.482;5.702;2023-08-30T06:22:11;14.20;99.90
76787;DHT22;65739;51.482;5.702;2023-08-30T06:24:36;14.30;99.90
76787;DHT22;65739;51.482;5.702;2023-08-30T06:27:02;14.50;99.90
76787;DHT22;65739;51.482;5.702;2023-08-30T06:29:27;14.60;99.90
76787;DHT22;65739;51.482;5.702;2023-08-30T06:31:53;14.60;99.90
76787;DHT22;65739;51.482;5.702;2023-08-30T06:34:18;14.60;99.90
76787;DHT22;65739;51.482;5.702;2023-08-30T06:36:44;14.70;99.90
76787;DHT22;65739;51.482;5.702;2023-08-30T06:39:10;14.80;99.90
76787;DHT22;65739;51.482;5.702;2023-08-30T06:41:35;14.80;99.90
76787;DHT22;65739;51.482;5.702;2023-08-30T06:44:01;14.90;99.90
76787;DHT22;65739;51.482;5.702;2023-08-30T06:46:26;15.10;99.90
76787;DHT22;65739;51.482;5.702;2023-08-30T06:48:52;15.10;99.90
76787;DHT22;65739;51.482;5.702;2023-08-30T06:51:18;15.10;99.90
76787;DHT22;65739;51.482;5.702;2023-08-30T06:53:43;15.00;99.90
76787;DHT22;65739;51.482;5.702;2023-08-30T06:56:09;15.10;99.90
76787;DHT22;65739;51.482;5.702;2023-08-30T06:58:34;15.20;99.90
76787;DHT22;65739;51.482;5.702;2023-08-30T07:01:00;15.20;99.90
76787;DHT22;65739;51.482;5.702;2023-08-30T07:03:25;15.30;99.90
76787;DHT22;65739;51.482;5.702;2023-08-30T07:05:51;15.40;99.90
76787;DHT22;65739;51.482;5.702;2023-08-30T07:08:17;15.40;99.90
76787;DHT22;65739;51.482;5.702;2023-08-30T07:10:43;15.30;99.90
76787;DHT22;65739;51.482;5.702;2023-08-30T07:13:08;15.10;99.90
76787;DHT22;65739;51.482;5.702;2023-08-30T07:15:38;14.90;99.90
76787;DHT22;65739;51.482;5.702;2023-08-30T07:18:05;14.80;99.90
76787;DHT22;65739;51.482;5.702;2023-08-30T07:20:31;14.70;99.90
76787;DHT22;65739;51.482;5.702;2023-08-30T07:22:56;14.60;99.90
76787;DHT22;65739;51.482;5.702;2023-08-30T07:25:22;14.40;99.90
76787;DHT22;65739;51.482;5.702;2023-08-30T07:27:47;14.40;99.90
76787;DHT22;65739;51.482;5.702;2023-08-30T07:30:13;14.40;99.90
76787;DHT22;65739;51.482;5.702;2023-08-30T07:32:40;14.30;99.90
76787;DHT22;65739;51.482;5.702;2023-08-30T07:35:05;14.20;99.90
76787;DHT22;65739;51.482;5.702;2023-08-30T07:37:31;14.10;99.90
76787;DHT22;65739;51.482;5.702;2023-08-30T07:39:56;14.00;99.90
76787;DHT22;65739;51.482;5.702;2023-08-30T07:42:22;14.00;99.90
76787;DHT22;65739;51.482;5.702;2023-08-30T07:44:48;14.00;99.90
76787;DHT22;65739;51.482;5.702;2023-08-30T07:47:13;13.90;99.90
76787;DHT22;65739;51.482;5.702;2023-08-30T07:49:40;14.00;99.90
76787;DHT22;65739;51.482;5.702;2023-08-30T07:52:06;14.00;99.90
76787;DHT22;65739;51.482;5.702;2023-08-30T07:54:33;14.10;99.90
76787;DHT22;65739;51.482;5.702;2023-08-30T07:56:59;14.10;99.90
76787;DHT22;65739;51.482;5.702;2023-08-30T07:59:24;14.10;99.90
76787;DHT22;65739;51.482;5.702;2023-08-30T08:01:50;14.20;99.90
76787;DHT22;65739;51.482;5.702;2023-08-30T08:04:17;14.10;99.90
76787;DHT22;65739;51.482;5.702;2023-08-30T08:06:42;14.00;99.90
76787;DHT22;65739;51.482;5.702;2023-08-30T08:09:08;14.10;99.90
76787;DHT22;65739;51.482;5.702;2023-08-30T08:11:33;14.00;99.90
76787;DHT22;65739;51.482;5.702;2023-08-30T08:13:59;14.00;99.90
76787;DHT22;65739;51.482;5.702;2023-08-30T08:16:24;14.00;99.90
76787;DHT22;65739;51.482;5.702;2023-08-30T08:18:50;14.00;99.90
76787;DHT22;65739;51.482;5.702;2023-08-30T08:21:17;14.00;99.90
76787;DHT22;65739;51.482;5.702;2023-08-30T08:23:43;14.10;99.90
76787;DHT22;65739;51.482;5.702;2023-08-30T08:26:08;14.10;99.90
76787;DHT22;65739;51.482;5.702;2023-08-30T08:28:34;14.20;99.90
76787;DHT22;65739;51.482;5.702;2023-08-30T08:31:00;14.30;99.90
76787;DHT22;65739;51.482;5.702;2023-08-30T08:33:26;14.20;99.90
76787;DHT22;65739;51.482;5.702;2023-08-30T08:35:51;14.10;99.90
76787;DHT22;65739;51.482;5.702;2023-08-30T08:38:17;14.00;99.90
76787;DHT22;65739;51.482;5.702;2023-08-30T08:40:43;14.00;99.90
76787;DHT22;65739;51.482;5.702;2023-08-30T08:43:11;14.00;99.90
76787;DHT22;65739;51.482;5.702;2023-08-30T08:45:37;14.00;99.90
76787;DHT22;65739;51.482;5.702;2023-08-30T08:48:03;14.00;99.90
76787;DHT22;65739;51.482;5.702;2023-08-30T08:50:29;14.10;99.90
76787;DHT22;65739;51.482;5.702;2023-08-30T08:52:56;14.00;99.90
76787;DHT22;65739;51.482;5.702;2023-08-30T08:55:22;14.00;99.90
76787;DHT22;65739;51.482;5.702;2023-08-30T08:57:48;14.20;99.90
76787;DHT22;65739;51.482;5.702;2023-08-30T09:00:14;14.00;99.90
76787;DHT22;65739;51.482;5.702;2023-08-30T09:02:42;13.90;99.90
76787;DHT22;65739;51.482;5.702;2023-08-30T09:05:08;14.00;99.90
76787;DHT22;65739;51.482;5.702;2023-08-30T09:07:35;14.00;99.90
76787;DHT22;65739;51.482;5.702;2023-08-30T09:10:01;14.00;99.90
76787;DHT22;65739;51.482;5.702;2023-08-30T09:12:27;14.10;99.90
76787;DHT22;65739;51.482;5.702;2023-08-30T09:14:54;14.00;99.90
76787;DHT22;65739;51.482;5.702;2023-08-30T09:17:20;14.10;99.90
76787;DHT22;65739;51.482;5.702;2023-08-30T09:19:46;14.20;99.90
76787;DHT22;65739;51.482;5.702;2023-08-30T09:22:11;14.30;99.90
76787;DHT22;65739;51.482;5.702;2023-08-30T09:24:38;14.30;99.90
76787;DHT22;65739;51.482;5.702;2023-08-30T09:27:05;14.30;99.90
76787;DHT22;65739;51.482;5.702;2023-08-30T09:29:30;14.30;99.90
76787;DHT22;65739;51.482;5.702;2023-08-30T09:31:57;14.30;99.90
76787;DHT22;65739;51.482;5.702;2023-08-30T09:34:24;14.30;99.90
76787;DHT22;65739;51.482;5.702;2023-08-30T09:36:53;14.30;99.90
76787;DHT22;65739;51.482;5.702;2023-08-30T09:39:19;14.40;99.90
76787;DHT22;65739;51.482;5.702;2023-08-30T09:41:47;14.50;99.90
76787;DHT22;65739;51.482;5.702;2023-08-30T09:44:14;14.50;99.90
76787;DHT22;65739;51.482;5.702;2023-08-30T09:46:51;14.60;99.90
76787;DHT22;65739;51.482;5.702;2023-08-30T09:49:19;14.60;99.90
76787;DHT22;65739;51.482;5.702;2023-08-30T09:51:46;14.70;99.90
76787;DHT22;65739;51.482;5.702;2023-08-30T09:54:19;14.70;99.90
76787;DHT22;65739;51.482;5.702;2023-08-30T09:56:46;14.80;99.90
76787;DHT22;65739;51.482;5.702;2023-08-30T09:59:13;14.70;99.90
76787;DHT22;65739;51.482;5.702;2023-08-30T10:01:40;14.80;99.90
76787;DHT22;65739;51.482;5.702;2023-08-30T10:04:07;14.90;99.90
76787;DHT22;65739;51.482;5.702;2023-08-30T10:06:40;14.90;99.90
76787;DHT22;65739;51.482;5.702;2023-08-30T10:09:07;15.00;99.90
76787;DHT22;65739;51.482;5.702;2023-08-30T10:11:34;15.20;99.90
76787;DHT22;65739;51.482;5.702;2023-08-30T10:14:03;15.50;99.90
76787;DHT22;65739;51.482;5.702;2023-08-30T10:16:32;15.80;99.90
76787;DHT22;65739;51.482;5.702;2023-08-30T10:19:09;16.00;99.90
76787;DHT22;65739;51.482;5.702;2023-08-30T10:21:36;16.30;99.90
76787;DHT22;65739;51.482;5.702;2023-08-30T10:24:04;16.50;99.90
76787;DHT22;65739;51.482;5.702;2023-08-30T10:26:31;16.70;99.90
76787;DHT22;65739;51.482;5.702;2023-08-30T10:28:58;17.00;99.90
76787;DHT22;65739;51.482;5.702;2023-08-30T10:31:24;17.00;99.90
76787;DHT22;65739;51.482;5.702;2023-08-30T10:33:52;16.80;99.90
76787;DHT22;65739;51.482;5.702;2023-08-30T10:36:22;16.50;99.90
76787;DHT22;65739;51.482;5.702;2023-08-30T10:38:50;16.60;99.90
76787;DHT22;65739;51.482;5.702;2023-08-30T10:41:26;17.00;99.90
76787;DHT22;65739;51.482;5.702;2023-08-30T10:43:52;17.20;99.90
76787;DHT22;65739;51.482;5.702;2023-08-30T10:46:33;17.60;99.90
76787;DHT22;65739;51.482;5.702;2023-08-30T10:49:12;17.60;99.90
76787;DHT22;65739;51.482;5.702;2023-08-30T10:51:40;17.60;99.90
76787;DHT22;65739;51.482;5.702;2023-08-30T10:54:16;17.70;99.90
76787;DHT22;65739;51.482;5.702;2023-08-30T10:59:17;17.90;99.90
76787;DHT22;65739;51.482;5.702;2023-08-30T11:01:44;18.50;99.90
76787;DHT22;65739;51.482;5.702;2023-08-30T11:04:11;18.40;99.90
76787;DHT22;65739;51.482;5.702;2023-08-30T11:06:43;18.50;99.90
76787;DHT22;65739;51.482;5.702;2023-08-30T11:09:09;18.70;99.90
76787;DHT22;65739;51.482;5.702;2023-08-30T11:11:39;18.70;99.90
76787;DHT22;65739;51.482;5.702;2023-08-30T11:14:06;19.00;99.90
76787;DHT22;65739;51.482;5.702;2023-08-30T11:16:33;18.80;99.90
76787;DHT22;65739;51.482;5.702;2023-08-30T11:19:03;18.80;99.90
76787;DHT22;65739;51.482;5.702;2023-08-30T11:21:30;19.00;99.90
76787;DHT22;65739;51.482;5.702;2023-08-30T11:23:56;19.30;99.90
76787;DHT22;65739;51.482;5.702;2023-08-30T11:26:22;19.40;99.90
76787;DHT22;65739;51.482;5.702;2023-08-30T11:28:48;19.20;99.90
76787;DHT22;65739;51.482;5.702;2023-08-30T11:31:24;18.90;99.90
76787;DHT22;65739;51.482;5.702;2023-08-30T11:33:53;18.90;99.90
76787;DHT22;65739;51.482;5.702;2023-08-30T11:36:21;19.30;99.90
76787;DHT22;65739;51.482;5.702;2023-08-30T11:38:49;19.50;99.90
76787;DHT22;65739;51.482;5.702;2023-08-30T11:41:14;19.60;99.90
76787;DHT22;65739;51.482;5.702;2023-08-30T11:43:40;19.80;99.90
76787;DHT22;65739;51.482;5.702;2023-08-30T11:46:06;20.10;99.90
76787;DHT22;65739;51.482;5.702;2023-08-30T11:48:32;20.00;99.90
76787;DHT22;65739;51.482;5.702;2023-08-30T11:50:58;19.60;99.90
76787;DHT22;65739;51.482;5.702;2023-08-30T11:53:25;19.60;99.90
76787;DHT22;65739;51.482;5.702;2023-08-30T11:55:51;19.60;99.90
76787;DHT22;65739;51.482;5.702;2023-08-30T11:58:20;20.10;99.90
76787;DHT22;65739;51.482;5.702;2023-08-30T12:00:48;20.30;99.90
76787;DHT22;65739;51.482;5.702;2023-08-30T12:03:15;21.00;99.90
76787;DHT22;65739;51.482;5.702;2023-08-30T12:05:48;21.10;99.90
76787;DHT22;65739;51.482;5.702;2023-08-30T12:08:27;20.60;99.90
76787;DHT22;65739;51.482;5.702;2023-08-30T12:10:54;19.90;99.90
76787;DHT22;65739;51.482;5.702;2023-08-30T12:13:32;19.30;99.90
76787;DHT22;65739;51.482;5.702;2023-08-30T12:15:58;18.90;99.90
76787;DHT22;65739;51.482;5.702;2023-08-30T12:18:25;18.50;99.90
76787;DHT22;65739;51.482;5.702;2023-08-30T12:20:58;18.40;99.90
76787;DHT22;65739;51.482;5.702;2023-08-30T12:23:26;18.50;99.90
76787;DHT22;65739;51.482;5.702;2023-08-30T12:26:11;18.70;99.90
76787;DHT22;65739;51.482;5.702;2023-08-30T12:28:38;18.60;99.90
76787;DHT22;65739;51.482;5.702;2023-08-30T12:31:04;18.80;99.90
76787;DHT22;65739;51.482;5.702;2023-08-30T12:33:31;19.20;99.90
76787;DHT22;65739;51.482;5.702;2023-08-30T12:35:57;19.70;99.90
76787;DHT22;65739;51.482;5.702;2023-08-30T12:38:23;20.50;99.90
76787;DHT22;65739;51.482;5.702;2023-08-30T12:40:54;20.90;99.90
76787;DHT22;65739;51.482;5.702;2023-08-30T12:43:21;20.90;99.90
76787;DHT22;65739;51.482;5.702;2023-08-30T12:45:47;20.90;99.90
76787;DHT22;65739;51.482;5.702;2023-08-30T12:48:14;20.40;99.90
76787;DHT22;65739;51.482;5.702;2023-08-30T12:50:41;20.30;99.90
76787;DHT22;65739;51.482;5.702;2023-08-30T12:53:07;20.50;99.90
76787;DHT22;65739;51.482;5.702;2023-08-30T12:55:33;20.70;99.90
76787;DHT22;65739;51.482;5.702;2023-08-30T12:58:02;21.00;99.90
76787;DHT22;65739;51.482;5.702;2023-08-30T13:00:30;20.60;99.90
76787;DHT22;65739;51.482;5.702;2023-08-30T13:02:56;20.20;99.90
76787;DHT22;65739;51.482;5.702;2023-08-30T13:05:21;19.90;99.90
76787;DHT22;65739;51.482;5.702;2023-08-30T13:07:47;19.80;99.90
76787;DHT22;65739;51.482;5.702;2023-08-30T13:10:13;19.60;99.90
76787;DHT22;65739;51.482;5.702;2023-08-30T13:12:39;19.40;99.90
76787;DHT22;65739;51.482;5.702;2023-08-30T13:15:06;19.20;99.90
76787;DHT22;65739;51.482;5.702;2023-08-30T13:17:32;19.00;99.90
76787;DHT22;65739;51.482;5.702;2023-08-30T13:19:57;18.90;99.90
76787;DHT22;65739;51.482;5.702;2023-08-30T13:22:24;18.90;99.90
76787;DHT22;65739;51.482;5.702;2023-08-30T13:24:50;19.20;99.90
76787;DHT22;65739;51.482;5.702;2023-08-30T13:27:16;19.90;99.90
76787;DHT22;65739;51.482;5.702;2023-08-30T13:29:41;20.50;99.90
76787;DHT22;65739;51.482;5.702;2023-08-30T13:32:07;20.70;99.90
76787;DHT22;65739;51.482;5.702;2023-08-30T13:34:33;21.00;99.90
76787;DHT22;65739;51.482;5.702;2023-08-30T13:36:58;20.70;99.90
76787;DHT22;65739;51.482;5.702;2023-08-30T13:39:24;20.20;99.90
76787;DHT22;65739;51.482;5.702;2023-08-30T13:41:49;19.90;99.90
76787;DHT22;65739;51.482;5.702;2023-08-30T13:44:15;20.10;99.90
76787;DHT22;65739;51.482;5.702;2023-08-30T13:46:41;20.30;99.90
76787;DHT22;65739;51.482;5.702;2023-08-30T13:49:08;20.10;99.90
76787;DHT22;65739;51.482;5.702;2023-08-30T13:51:33;20.00;99.90
76787;DHT22;65739;51.482;5.702;2023-08-30T13:53:59;20.10;99.90
76787;DHT22;65739;51.482;5.702;2023-08-30T13:56:24;20.50;99.90
76787;DHT22;65739;51.482;5.702;2023-08-30T13:58:50;20.90;99.90
76787;DHT22;65739;51.482;5.702;2023-08-30T14:01:16;21.40;99.90
76787;DHT22;65739;51.482;5.702;2023-08-30T14:03:44;21.20;99.90
76787;DHT22;65739;51.482;5.702;2023-08-30T14:06:10;20.80;99.90
76787;DHT22;65739;51.482;5.702;2023-08-30T14:08:35;21.40;99.90
76787;DHT22;65739;51.482;5.702;2023-08-30T14:11:01;21.70;99.90
76787;DHT22;65739;51.482;5.702;2023-08-30T14:13:27;21.70;99.90
76787;DHT22;65739;51.482;5.702;2023-08-30T14:15:59;21.10;99.90
76787;DHT22;65739;51.482;5.702;2023-08-30T14:18:25;20.70;99.90
76787;DHT22;65739;51.482;5.702;2023-08-30T14:20:51;20.20;99.90
76787;DHT22;65739;51.482;5.702;2023-08-30T14:23:16;20.20;99.90
76787;DHT22;65739;51.482;5.702;2023-08-30T14:25:42;20.40;99.90
76787;DHT22;65739;51.482;5.702;2023-08-30T14:28:07;21.00;99.90
76787;DHT22;65739;51.482;5.702;2023-08-30T14:30:33;21.30;99.90
76787;DHT22;65739;51.482;5.702;2023-08-30T14:32:58;21.60;99.90
76787;DHT22;65739;51.482;5.702;2023-08-30T14:35:24;21.20;99.90
76787;DHT22;65739;51.482;5.702;2023-08-30T14:37:50;21.10;99.90
76787;DHT22;65739;51.482;5.702;2023-08-30T14:40:16;20.90;99.90
76787;DHT22;65739;51.482;5.702;2023-08-30T14:42:42;21.00;99.90
76787;DHT22;65739;51.482;5.702;2023-08-30T14:45:07;21.20;99.90
76787;DHT22;65739;51.482;5.702;2023-08-30T14:47:33;20.90;99.90
76787;DHT22;65739;51.482;5.702;2023-08-30T14:49:59;20.40;99.90
76787;DHT22;65739;51.482;5.702;2023-08-30T14:52:28;19.80;99.90
76787;DHT22;65739;51.482;5.702;2023-08-30T14:54:53;19.40;99.90
76787;DHT22;65739;51.482;5.702;2023-08-30T14:57:19;19.20;99.90
76787;DHT22;65739;51.482;5.702;2023-08-30T14:59:45;19.60;99.90
76787;DHT22;65739;51.482;5.702;2023-08-30T15:02:11;20.00;99.90
76787;DHT22;65739;51.482;5.702;2023-08-30T15:04:36;20.20;99.90
76787;DHT22;65739;51.482;5.702;2023-08-30T15:07:02;20.50;99.90
76787;DHT22;65739;51.482;5.702;2023-08-30T15:09:30;20.50;99.90
76787;DHT22;65739;51.482;5.702;2023-08-30T15:11:55;20.50;99.90
76787;DHT22;65739;51.482;5.702;2023-08-30T15:14:23;20.40;99.90
76787;DHT22;65739;51.482;5.702;2023-08-30T15:16:49;20.10;99.90
76787;DHT22;65739;51.482;5.702;2023-08-30T15:19:14;20.10;99.90
76787;DHT22;65739;51.482;5.702;2023-08-30T15:21:40;19.60;99.90
76787;DHT22;65739;51.482;5.702;2023-08-30T15:24:05;19.50;99.90
76787;DHT22;65739;51.482;5.702;2023-08-30T15:26:31;19.30;99.90
76787;DHT22;65739;51.482;5.702;2023-08-30T15:28:57;19.30;99.90
76787;DHT22;65739;51.482;5.702;2023-08-30T15:31:22;19.70;99.90